Tunis, Tunisia
Current Conditions -  °F | °C
As of 6:30 AM on Thursday 18 Dec 2014 (Local Time) from DTTA Reporting Station
Few Clouds Few Clouds  
Wind Chill: 54°   Ceiling: Unl
Heat Index: 54°   Visibility: 6mi
Dew Point: 50°   Wind: 9mph
Humidity: 88%   Direction: 210°SSW
Pressure: 30.06"   Gusts: NA
Location:  36.84°N, 10.22°E
Report Text: DTTA 180530Z 21008KT 9999 FEW023 12/10 Q1018 NOSIG
Loading
Personal Weather Stations






























Interactive Weather Map New forecast layout! Learn more

10-Day Weather Forecast

Advertisements
Track Severe Weather on mobile